sensor_id;sensor_type;location;lat;lon;timestamp;pressure;altitude;pressure_sealevel;temperature;humidity
54389;BME280;40975;50.390;8.640;2023-03-05T00:00:43;99427.81;;;3.09;97.45
54389;BME280;40975;50.390;8.640;2023-03-05T00:03:08;99428.84;;;3.21;96.93
54389;BME280;40975;50.390;8.640;2023-03-05T00:05:33;99427.69;;;3.25;95.66
54389;BME280;40975;50.390;8.640;2023-03-05T00:07:59;99428.84;;;3.21;95.38
54389;BME280;40975;50.390;8.640;2023-03-05T00:10:24;99424.63;;;3.18;96.51
54389;BME280;40975;50.390;8.640;2023-03-05T00:12:50;99435.00;;;3.20;97.02
54389;BME280;40975;50.390;8.640;2023-03-05T00:15:15;99426.50;;;3.16;98.13
54389;BME280;40975;50.390;8.640;2023-03-05T00:17:40;99429.94;;;3.17;97.44
54389;BME280;40975;50.390;8.640;2023-03-05T00:20:06;99433.59;;;3.14;97.55
54389;BME280;40975;50.390;8.640;2023-03-05T00:22:33;99431.09;;;3.13;96.47
54389;BME280;40975;50.390;8.640;2023-03-05T00:24:58;99419.72;;;3.12;96.75
54389;BME280;40975;50.390;8.640;2023-03-05T00:27:24;99426.75;;;3.26;95.34
54389;BME280;40975;50.390;8.640;2023-03-05T00:29:49;99426.50;;;3.16;96.88
54389;BME280;40975;50.390;8.640;2023-03-05T00:32:15;99427.41;;;3.15;96.53
54389;BME280;40975;50.390;8.640;2023-03-05T00:34:40;99422.34;;;3.12;97.15
54389;BME280;40975;50.390;8.640;2023-03-05T00:37:05;99427.81;;;3.09;97.62
54389;BME280;40975;50.390;8.640;2023-03-05T00:39:32;99424.75;;;3.01;96.98
54389;BME280;40975;50.390;8.640;2023-03-05T00:41:57;99420.94;;;3.06;96.85
54389;BME280;40975;50.390;8.640;2023-03-05T00:44:22;99422.06;;;3.02;96.96
54389;BME280;40975;50.390;8.640;2023-03-05T00:46:48;99423.66;;;3.05;96.69
54389;BME280;40975;50.390;8.640;2023-03-05T00:49:14;99418.31;;;3.06;98.15
54389;BME280;40975;50.390;8.640;2023-03-05T00:51:40;99414.75;;;3.07;98.59
54389;BME280;40975;50.390;8.640;2023-03-05T00:54:06;99420.38;;;3.01;97.49
54389;BME280;40975;50.390;8.640;2023-03-05T00:56:31;99414.00;;;3.05;97.22
54389;BME280;40975;50.390;8.640;2023-03-05T00:58:56;99405.41;;;3.03;98.61
54389;BME280;40975;50.390;8.640;2023-03-05T01:01:23;99403.63;;;3.04;96.52
54389;BME280;40975;50.390;8.640;2023-03-05T01:03:49;99400.16;;;3.03;96.49
54389;BME280;40975;50.390;8.640;2023-03-05T01:06:14;99399.31;;;3.03;97.35
54389;BME280;40975;50.390;8.640;2023-03-05T01:08:43;99397.34;;;3.06;98.38
54389;BME280;40975;50.390;8.640;2023-03-05T01:11:09;99396.13;;;2.98;98.67
54389;BME280;40975;50.390;8.640;2023-03-05T01:13:36;99392.28;;;3.03;98.56
54389;BME280;40975;50.390;8.640;2023-03-05T01:16:02;99387.88;;;3.04;100.00
54389;BME280;40975;50.390;8.640;2023-03-05T01:18:27;99387.22;;;3.00;100.00
54389;BME280;40975;50.390;8.640;2023-03-05T01:20:53;99386.28;;;3.01;100.00
54389;BME280;40975;50.390;8.640;2023-03-05T01:23:18;99381.88;;;3.02;100.00
54389;BME280;40975;50.390;8.640;2023-03-05T01:25:44;99378.59;;;2.98;100.00
54389;BME280;40975;50.390;8.640;2023-03-05T01:28:10;99375.69;;;2.88;100.00
54389;BME280;40975;50.390;8.640;2023-03-05T01:30:35;99370.63;;;2.85;100.00
54389;BME280;40975;50.390;8.640;2023-03-05T01:33:01;99372.50;;;2.83;100.00
54389;BME280;40975;50.390;8.640;2023-03-05T01:35:27;99368.94;;;2.84;100.00
54389;BME280;40975;50.390;8.640;2023-03-05T01:37:53;99368.19;;;2.82;100.00
54389;BME280;40975;50.390;8.640;2023-03-05T01:40:27;99362.94;;;2.82;100.00
54389;BME280;40975;50.390;8.640;2023-03-05T01:45:37;99359.97;;;2.88;100.00
54389;BME280;40975;50.390;8.640;2023-03-05T01:48:04;99351.34;;;2.86;100.00
54389;BME280;40975;50.390;8.640;2023-03-05T01:50:29;99355.81;;;2.84;100.00
54389;BME280;40975;50.390;8.640;2023-03-05T01:53:00;99349.94;;;2.80;100.00
54389;BME280;40975;50.390;8.640;2023-03-05T01:55:28;99354.31;;;2.80;100.00
54389;BME280;40975;50.390;8.640;2023-03-05T01:58:12;99354.31;;;2.80;100.00
54389;BME280;40975;50.390;8.640;2023-03-05T02:00:45;99347.31;;;2.80;100.00
54389;BME280;40975;50.390;8.640;2023-03-05T02:03:12;99347.22;;;2.82;100.00
54389;BME280;40975;50.390;8.640;2023-03-05T02:05:39;99343.81;;;2.80;100.00
54389;BME280;40975;50.390;8.640;2023-03-05T02:08:09;99336.66;;;2.84;100.00
54389;BME280;40975;50.390;8.640;2023-03-05T02:10:38;99334.31;;;2.79;100.00
54389;BME280;40975;50.390;8.640;2023-03-05T02:13:06;99330.28;;;2.73;100.00
54389;BME280;40975;50.390;8.640;2023-03-05T02:15:33;99334.31;;;2.79;100.00
54389;BME280;40975;50.390;8.640;2023-03-05T02:17:59;99343.09;;;2.78;100.00
54389;BME280;40975;50.390;8.640;2023-03-05T02:20:28;99313.03;;;2.69;100.00
54389;BME280;40975;50.390;8.640;2023-03-05T02:22:54;99335.03;;;2.81;100.00
54389;BME280;40975;50.390;8.640;2023-03-05T02:25:27;99333.53;;;2.77;100.00
54389;BME280;40975;50.390;8.640;2023-03-05T02:28:00;99332.50;;;2.79;100.00
54389;BME280;40975;50.390;8.640;2023-03-05T02:30:27;99328.97;;;2.80;100.00
54389;BME280;40975;50.390;8.640;2023-03-05T02:32:53;99322.13;;;2.78;100.00
54389;BME280;40975;50.390;8.640;2023-03-05T02:35:19;99306.19;;;2.67;100.00
54389;BME280;40975;50.390;8.640;2023-03-05T02:37:45;99321.94;;;2.81;100.00
54389;BME280;40975;50.390;8.640;2023-03-05T02:40:13;99321.00;;;2.82;100.00
54389;BME280;40975;50.390;8.640;2023-03-05T02:42:40;99325.47;;;2.80;100.00
54389;BME280;40975;50.390;8.640;2023-03-05T02:45:06;99324.75;;;2.78;100.00
54389;BME280;40975;50.390;8.640;2023-03-05T02:47:32;99318.16;;;2.71;100.00
54389;BME280;40975;50.390;8.640;2023-03-05T02:49:57;99319.56;;;2.62;100.00
54389;BME280;40975;50.390;8.640;2023-03-05T02:52:23;99317.50;;;2.67;100.00
54389;BME280;40975;50.390;8.640;2023-03-05T02:54:51;99315.00;;;2.66;100.00
54389;BME280;40975;50.390;8.640;2023-03-05T02:57:17;99324.81;;;2.62;100.00
54389;BME280;40975;50.390;8.640;2023-03-05T02:59:44;99320.69;;;2.58;100.00
54389;BME280;40975;50.390;8.640;2023-03-05T03:02:09;99315.44;;;2.58;100.00
54389;BME280;40975;50.390;8.640;2023-03-05T03:04:35;99313.56;;;2.60;100.00
54389;BME280;40975;50.390;8.640;2023-03-05T03:07:00;99320.63;;;2.59;100.00
54389;BME280;40975;50.390;8.640;2023-03-05T03:09:25;99307.09;;;2.51;100.00
54389;BME280;40975;50.390;8.640;2023-03-05T03:11:51;99316.84;;;2.49;100.00
54389;BME280;40975;50.390;8.640;2023-03-05T03:14:16;99307.47;;;2.45;100.00
54389;BME280;40975;50.390;8.640;2023-03-05T03:16:42;99309.72;;;2.51;100.00
54389;BME280;40975;50.390;8.640;2023-03-05T03:19:07;99299.50;;;2.46;100.00
54389;BME280;40975;50.390;8.640;2023-03-05T03:21:32;99302.88;;;2.48;100.00
54389;BME280;40975;50.390;8.640;2023-03-05T03:23:58;99297.81;;;2.45;100.00
54389;BME280;40975;50.390;8.640;2023-03-05T03:26:23;99298.78;;;2.44;100.00
54389;BME280;40975;50.390;8.640;2023-03-05T03:28:48;99299.88;;;2.40;100.00
54389;BME280;40975;50.390;8.640;2023-03-05T03:31:14;99296.41;;;2.40;100.00
54389;BME280;40975;50.390;8.640;2023-03-05T03:33:39;99294.91;;;2.36;100.00
54389;BME280;40975;50.390;8.640;2023-03-05T03:36:05;99298.94;;;2.41;99.61
54389;BME280;40975;50.390;8.640;2023-03-05T03:38:30;99291.69;;;2.30;98.97
54389;BME280;40975;50.390;8.640;2023-03-05T03:40:56;99289.00;;;2.32;99.33
54389;BME280;40975;50.390;8.640;2023-03-05T03:43:21;99285.47;;;2.33;99.29
54389;BME280;40975;50.390;8.640;2023-03-05T03:45:46;99296.00;;;2.31;100.00
54389;BME280;40975;50.390;8.640;2023-03-05T03:48:12;99288.25;;;2.30;99.53
54389;BME280;40975;50.390;8.640;2023-03-05T03:50:41;99281.75;;;2.21;98.13
54389;BME280;40975;50.390;8.640;2023-03-05T03:53:07;99286.66;;;2.27;97.15
54389;BME280;40975;50.390;8.640;2023-03-05T03:55:33;99278.03;;;2.25;96.73
54389;BME280;40975;50.390;8.640;2023-03-05T03:57:59;99287.66;;;2.25;96.86
54389;BME280;40975;50.390;8.640;2023-03-05T04:00:24;99268.88;;;2.18;98.89
54389;BME280;40975;50.390;8.640;2023-03-05T04:02:50;99286.84;;;2.24;99.13
54389;BME280;40975;50.390;8.640;2023-03-05T04:05:15;99283.56;;;2.21;98.15
54389;BME280;40975;50.390;8.640;2023-03-05T04:07:40;99281.75;;;2.21;98.71
54389;BME280;40975;50.390;8.640;2023-03-05T04:10:06;99273.53;;;2.13;98.14
54389;BME280;40975;50.390;8.640;2023-03-05T04:12:32;99277.56;;;2.18;98.79
54389;BME280;40975;50.390;8.640;2023-03-05T04:14:57;99262.78;;;2.17;100.00
54389;BME280;40975;50.390;8.640;2023-03-05T04:17:22;99266.31;;;2.16;98.05
54389;BME280;40975;50.390;8.640;2023-03-05T04:19:48;99259.41;;;2.15;96.18
54389;BME280;40975;50.390;8.640;2023-03-05T04:22:15;99258.47;;;2.16;98.34
54389;BME280;40975;50.390;8.640;2023-03-05T04:24:41;99256.78;;;2.15;98.19
54389;BME280;40975;50.390;8.640;2023-03-05T04:27:07;99257.63;;;2.16;99.02
54389;BME280;40975;50.390;8.640;2023-03-05T04:29:32;99251.81;;;2.11;100.00
54389;BME280;40975;50.390;8.640;2023-03-05T04:31:58;99246.66;;;2.09;100.00
54389;BME280;40975;50.390;8.640;2023-03-05T04:34:23;99239.19;;;2.03;99.30
54389;BME280;40975;50.390;8.640;2023-03-05T04:36:49;99231.41;;;2.01;98.46
54389;BME280;40975;50.390;8.640;2023-03-05T04:39:14;99229.91;;;1.97;98.72
54389;BME280;40975;50.390;8.640;2023-03-05T04:41:40;99226.53;;;1.95;99.50
54389;BME280;40975;50.390;8.640;2023-03-05T04:44:06;99219.44;;;1.97;98.31
54389;BME280;40975;50.390;8.640;2023-03-05T04:46:31;99213.28;;;1.98;97.71
54389;BME280;40975;50.390;8.640;2023-03-05T04:48:57;99209.81;;;1.98;96.86
54389;BME280;40975;50.390;8.640;2023-03-05T04:51:22;99213.19;;;2.00;96.60
54389;BME280;40975;50.390;8.640;2023-03-05T04:53:48;99215.91;;;1.98;98.70
54389;BME280;40975;50.390;8.640;2023-03-05T04:56:13;99212.41;;;1.98;99.84
54389;BME280;40975;50.390;8.640;2023-03-05T04:58:39;99219.44;;;1.97;98.64
54389;BME280;40975;50.390;8.640;2023-03-05T05:01:05;99217.75;;;1.96;100.00
54389;BME280;40975;50.390;8.640;2023-03-05T05:03:31;99218.69;;;1.95;100.00
54389;BME280;40975;50.390;8.640;2023-03-05T05:05:57;99213.19;;;2.00;99.79
54389;BME280;40975;50.390;8.640;2023-03-05T05:08:23;99203.81;;;1.96;100.00
54389;BME280;40975;50.390;8.640;2023-03-05T05:10:57;99209.25;;;1.93;100.00
54389;BME280;40975;50.390;8.640;2023-03-05T05:13:23;99210.06;;;1.93;100.00
54389;BME280;40975;50.390;8.640;2023-03-05T05:15:48;99204.00;;;1.93;100.00
54389;BME280;40975;50.390;8.640;2023-03-05T05:18:13;99203.34;;;1.89;100.00
54389;BME280;40975;50.390;8.640;2023-03-05T05:20:39;99199.78;;;1.90;98.76
54389;BME280;40975;50.390;8.640;2023-03-05T05:23:04;99197.25;;;1.89;100.00
54389;BME280;40975;50.390;8.640;2023-03-05T05:25:29;99199.88;;;1.89;98.73
54389;BME280;40975;50.390;8.640;2023-03-05T05:27:55;99196.59;;;1.85;100.00
54389;BME280;40975;50.390;8.640;2023-03-05T05:30:20;99198.19;;;1.88;100.00
54389;BME280;40975;50.390;8.640;2023-03-05T05:32:45;99197.53;;;1.84;100.00
54389;BME280;40975;50.390;8.640;2023-03-05T05:35:11;99190.59;;;1.83;100.00
54389;BME280;40975;50.390;8.640;2023-03-05T05:37:36;99203.34;;;1.89;100.00
54389;BME280;40975;50.390;8.640;2023-03-05T05:40:02;99193.03;;;1.86;100.00
54389;BME280;40975;50.390;8.640;2023-03-05T05:42:29;99195.56;;;1.88;99.13
54389;BME280;40975;50.390;8.640;2023-03-05T05:44:55;99189.41;;;1.89;97.46
54389;BME280;40975;50.390;8.640;2023-03-05T05:47:20;99197.34;;;1.87;99.54
54389;BME280;40975;50.390;8.640;2023-03-05T05:49:46;99201.00;;;1.84;99.20
54389;BME280;40975;50.390;8.640;2023-03-05T05:52:12;99195.75;;;1.84;100.00
54389;BME280;40975;50.390;8.640;2023-03-05T05:54:37;99196.75;;;1.82;100.00
54389;BME280;40975;50.390;8.640;2023-03-05T05:57:03;99189.94;;;1.79;100.00
54389;BME280;40975;50.390;8.640;2023-03-05T05:59:28;99196.84;;;1.80;100.00
54389;BME280;40975;50.390;8.640;2023-03-05T06:01:53;99196.09;;;1.78;100.00
54389;BME280;40975;50.390;8.640;2023-03-05T06:04:19;99192.00;;;1.74;100.00
54389;BME280;40975;50.390;8.640;2023-03-05T06:06:44;99200.41;;;1.79;100.00
54389;BME280;40975;50.390;8.640;2023-03-05T06:09:09;99196.19;;;1.77;100.00
54389;BME280;40975;50.390;8.640;2023-03-05T06:11:36;99197.22;;;1.74;100.00
54389;BME280;40975;50.390;8.640;2023-03-05T06:14:01;99198.97;;;1.74;100.00
54389;BME280;40975;50.390;8.640;2023-03-05T06:16:28;99203.38;;;1.73;100.00
54389;BME280;40975;50.390;8.640;2023-03-05T06:18:53;99199.66;;;1.77;100.00
54389;BME280;40975;50.390;8.640;2023-03-05T06:21:20;99188.34;;;1.77;100.00
54389;BME280;40975;50.390;8.640;2023-03-05T06:23:46;99198.72;;;1.78;100.00
54389;BME280;40975;50.390;8.640;2023-03-05T06:26:15;99191.63;;;1.80;100.00
54389;BME280;40975;50.390;8.640;2023-03-05T06:28:41;99190.59;;;1.83;98.49
54389;BME280;40975;50.390;8.640;2023-03-05T06:31:26;99187.97;;;1.83;98.05
54389;BME280;40975;50.390;8.640;2023-03-05T06:33:53;99193.03;;;1.86;97.39
54389;BME280;40975;50.390;8.640;2023-03-05T06:36:21;99187.38;;;1.94;97.44
54389;BME280;40975;50.390;8.640;2023-03-05T06:38:47;99194.09;;;1.98;97.73
54389;BME280;40975;50.390;8.640;2023-03-05T06:41:15;99188.78;;;1.99;99.40
54389;BME280;40975;50.390;8.640;2023-03-05T06:43:44;99188.84;;;1.98;97.73
54389;BME280;40975;50.390;8.640;2023-03-05T06:46:24;99196.38;;;2.04;97.90
54389;BME280;40975;50.390;8.640;2023-03-05T06:48:51;99188.53;;;2.04;98.92
54389;BME280;40975;50.390;8.640;2023-03-05T06:51:20;99192.88;;;2.04;99.10
54389;BME280;40975;50.390;8.640;2023-03-05T06:53:46;99206.56;;;2.09;99.66
54389;BME280;40975;50.390;8.640;2023-03-05T06:56:12;99203.09;;;2.08;100.00
54389;BME280;40975;50.390;8.640;2023-03-05T06:58:44;99198.72;;;2.09;100.00
54389;BME280;40975;50.390;8.640;2023-03-05T07:01:13;99196.81;;;2.11;100.00
54389;BME280;40975;50.390;8.640;2023-03-05T07:03:39;99201.72;;;2.17;100.00
54389;BME280;40975;50.390;8.640;2023-03-05T07:06:07;99195.06;;;2.26;100.00
54389;BME280;40975;50.390;8.640;2023-03-05T07:08:33;99197.69;;;2.26;100.00
54389;BME280;40975;50.390;8.640;2023-03-05T07:10:58;99205.28;;;2.30;100.00
54389;BME280;40975;50.390;8.640;2023-03-05T07:13:24;99198.63;;;2.25;100.00
54389;BME280;40975;50.390;8.640;2023-03-05T07:15:50;99186.94;;;2.30;100.00
54389;BME280;40975;50.390;8.640;2023-03-05T07:18:15;99206.69;;;2.36;100.00
54389;BME280;40975;50.390;8.640;2023-03-05T07:20:40;99197.53;;;2.43;100.00
54389;BME280;40975;50.390;8.640;2023-03-05T07:23:06;99200.06;;;2.45;100.00
54389;BME280;40975;50.390;8.640;2023-03-05T07:25:34;99200.22;;;2.42;100.00
54389;BME280;40975;50.390;8.640;2023-03-05T07:27:59;99200.53;;;2.52;100.00
54389;BME280;40975;50.390;8.640;2023-03-05T07:30:24;99215.50;;;2.49;100.00
54389;BME280;40975;50.390;8.640;2023-03-05T07:32:51;99209.44;;;2.49;100.00
54389;BME280;40975;50.390;8.640;2023-03-05T07:35:16;99208.38;;;2.37;100.00
54389;BME280;40975;50.390;8.640;2023-03-05T07:37:42;99203.78;;;2.41;100.00
54389;BME280;40975;50.390;8.640;2023-03-05T07:40:08;99203.72;;;2.42;100.00
54389;BME280;40975;50.390;8.640;2023-03-05T07:42:33;99190.88;;;2.38;100.00
54389;BME280;40975;50.390;8.640;2023-03-05T07:45:10;99205.28;;;2.45;100.00
54389;BME280;40975;50.390;8.640;2023-03-05T07:47:36;99197.97;;;2.50;100.00
54389;BME280;40975;50.390;8.640;2023-03-05T07:50:01;99206.03;;;2.61;100.00
54389;BME280;40975;50.390;8.640;2023-03-05T07:52:27;99187.31;;;2.53;100.00
54389;BME280;40975;50.390;8.640;2023-03-05T07:54:53;99195.75;;;2.58;100.00
54389;BME280;40975;50.390;8.640;2023-03-05T07:57:18;99196.13;;;2.67;100.00
54389;BME280;40975;50.390;8.640;2023-03-05T07:59:43;99190.97;;;2.65;100.00
54389;BME280;40975;50.390;8.640;2023-03-05T08:02:12;99183.03;;;2.67;100.00
54389;BME280;40975;50.390;8.640;2023-03-05T08:04:38;99183.09;;;2.65;100.00
54389;BME280;40975;50.390;8.640;2023-03-05T08:07:04;99185.53;;;2.68;100.00
54389;BME280;40975;50.390;8.640;2023-03-05T08:09:29;99181.69;;;2.74;100.00
54389;BME280;40975;50.390;8.640;2023-03-05T08:11:54;99176.06;;;2.80;100.00
54389;BME280;40975;50.390;8.640;2023-03-05T08:14:20;99177.84;;;2.79;100.00
54389;BME280;40975;50.390;8.640;2023-03-05T08:16:45;99166.34;;;2.82;100.00
54389;BME280;40975;50.390;8.640;2023-03-05T08:19:11;99168.78;;;2.85;100.00
54389;BME280;40975;50.390;8.640;2023-03-05T08:21:37;99157.81;;;2.93;100.00
54389;BME280;40975;50.390;8.640;2023-03-05T08:24:05;99161.81;;;2.99;100.00
54389;BME280;40975;50.390;8.640;2023-03-05T08:26:33;99158.50;;;3.09;100.00
54389;BME280;40975;50.390;8.640;2023-03-05T08:28:59;99149.94;;;3.20;100.00
54389;BME280;40975;50.390;8.640;2023-03-05T08:31:25;99145.25;;;3.25;100.00
54389;BME280;40975;50.390;8.640;2023-03-05T08:33:53;99151.41;;;3.39;100.00
54389;BME280;40975;50.390;8.640;2023-03-05T08:36:19;99144.84;;;3.32;99.81
54389;BME280;40975;50.390;8.640;2023-03-05T08:38:45;99143.41;;;3.40;99.60
54389;BME280;40975;50.390;8.640;2023-03-05T08:41:16;99143.31;;;3.42;99.30
54389;BME280;40975;50.390;8.640;2023-03-05T08:43:42;99148.63;;;3.28;98.59
54389;BME280;40975;50.390;8.640;2023-03-05T08:46:09;99142.84;;;3.35;98.97
54389;BME280;40975;50.390;8.640;2023-03-05T08:48:34;99138.03;;;3.29;98.54
54389;BME280;40975;50.390;8.640;2023-03-05T08:51:08;99138.97;;;3.28;98.58
54389;BME280;40975;50.390;8.640;2023-03-05T08:53:33;99126.00;;;3.39;100.00
54389;BME280;40975;50.390;8.640;2023-03-05T08:55:59;99134.91;;;3.37;99.04
54389;BME280;40975;50.390;8.640;2023-03-05T08:58:24;99130.00;;;3.45;97.76
54389;BME280;40975;50.390;8.640;2023-03-05T09:00:50;99127.13;;;3.35;97.45
54389;BME280;40975;50.390;8.640;2023-03-05T09:03:16;99126.09;;;3.38;97.67
54389;BME280;40975;50.390;8.640;2023-03-05T09:05:41;99129.44;;;3.40;98.67
54389;BME280;40975;50.390;8.640;2023-03-05T09:08:07;99124.72;;;3.32;98.67
54389;BME280;40975;50.390;8.640;2023-03-05T09:10:32;99120.75;;;3.39;96.77
54389;BME280;40975;50.390;8.640;2023-03-05T09:12:57;99123.19;;;3.42;96.27
54389;BME280;40975;50.390;8.640;2023-03-05T09:15:23;99121.00;;;3.49;96.89
54389;BME280;40975;50.390;8.640;2023-03-05T09:17:48;99122.88;;;3.47;96.06
54389;BME280;40975;50.390;8.640;2023-03-05T09:20:14;99114.66;;;3.39;95.64
54389;BME280;40975;50.390;8.640;2023-03-05T09:22:40;99115.94;;;3.46;96.61
54389;BME280;40975;50.390;8.640;2023-03-05T09:25:06;99121.09;;;3.61;96.98
54389;BME280;40975;50.390;8.640;2023-03-05T09:27:33;99116.91;;;3.71;95.98
54389;BME280;40975;50.390;8.640;2023-03-05T09:29:58;99115.03;;;3.60;93.86
54389;BME280;40975;50.390;8.640;2023-03-05T09:32:24;99112.91;;;3.65;93.87
54389;BME280;40975;50.390;8.640;2023-03-05T09:34:49;99106.53;;;3.69;94.22
54389;BME280;40975;50.390;8.640;2023-03-05T09:37:14;99105.59;;;3.70;93.86
54389;BME280;40975;50.390;8.640;2023-03-05T09:39:40;99109.25;;;3.68;94.13
54389;BME280;40975;50.390;8.640;2023-03-05T09:45:16;99110.09;;;3.81;91.99
54389;BME280;40975;50.390;8.640;2023-03-05T09:48:11;99096.16;;;3.94;92.22
54389;BME280;40975;50.390;8.640;2023-03-05T09:50:46;99096.69;;;4.12;91.47
54389;BME280;40975;50.390;8.640;2023-03-05T09:53:39;99097.94;;;4.19;89.80
54389;BME280;40975;50.390;8.640;2023-03-05T09:56:11;99102.75;;;4.25;90.74
54389;BME280;40975;50.390;8.640;2023-03-05T09:58:40;99101.47;;;4.31;90.31
54389;BME280;40975;50.390;8.640;2023-03-05T10:01:12;99096.41;;;4.54;91.74
54389;BME280;40975;50.390;8.640;2023-03-05T10:06:48;99098.13;;;4.42;89.05
54389;BME280;40975;50.390;8.640;2023-03-05T10:09:24;99093.28;;;4.48;87.63
54389;BME280;40975;50.390;8.640;2023-03-05T10:11:56;99086.09;;;4.50;89.53
54389;BME280;40975;50.390;8.640;2023-03-05T10:14:27;99087.63;;;4.29;87.92
54389;BME280;40975;50.390;8.640;2023-03-05T10:22:31;99077.97;;;4.66;87.93
54389;BME280;40975;50.390;8.640;2023-03-05T10:27:55;99064.47;;;4.84;86.12
54389;BME280;40975;50.390;8.640;2023-03-05T10:30:58;99062.25;;;5.02;87.30
54389;BME280;40975;50.390;8.640;2023-03-05T10:33:42;99050.50;;;5.19;84.61
54389;BME280;40975;50.390;8.640;2023-03-05T10:36:29;99045.34;;;5.18;83.61
54389;BME280;40975;50.390;8.640;2023-03-05T10:39:12;99033.16;;;4.92;84.80
54389;BME280;40975;50.390;8.640;2023-03-05T10:42:16;99037.16;;;5.34;85.13
54389;BME280;40975;50.390;8.640;2023-03-05T10:44:50;99028.88;;;5.27;84.61
54389;BME280;40975;50.390;8.640;2023-03-05T10:47:27;99038.28;;;5.54;83.36
54389;BME280;40975;50.390;8.640;2023-03-05T10:49:55;99027.28;;;5.71;83.87
54389;BME280;40975;50.390;8.640;2023-03-05T10:52:27;99027.03;;;5.63;82.25
54389;BME280;40975;50.390;8.640;2023-03-05T10:54:54;99017.69;;;5.70;82.16
54389;BME280;40975;50.390;8.640;2023-03-05T10:57:23;99014.13;;;5.83;81.46
54389;BME280;40975;50.390;8.640;2023-03-05T11:00:32;99005.97;;;5.63;82.48
54389;BME280;40975;50.390;8.640;2023-03-05T11:10:43;99005.75;;;5.19;84.12
54389;BME280;40975;50.390;8.640;2023-03-05T11:13:26;99001.56;;;5.17;83.72
54389;BME280;40975;50.390;8.640;2023-03-05T11:16:02;98998.78;;;5.07;81.67
54389;BME280;40975;50.390;8.640;2023-03-05T11:18:28;98994.13;;;4.99;81.48
54389;BME280;40975;50.390;8.640;2023-03-05T11:21:17;98993.84;;;4.66;83.15
54389;BME280;40975;50.390;8.640;2023-03-05T11:23:51;98994.16;;;4.62;83.34
54389;BME280;40975;50.390;8.640;2023-03-05T11:26:27;98990.78;;;4.48;83.45
54389;BME280;40975;50.390;8.640;2023-03-05T11:33:54;98998.47;;;4.39;87.95
54389;BME280;40975;50.390;8.640;2023-03-05T11:36:24;98989.06;;;4.23;88.87
54389;BME280;40975;50.390;8.640;2023-03-05T11:39:01;98988.91;;;4.00;89.69
54389;BME280;40975;50.390;8.640;2023-03-05T11:41:39;98988.88;;;4.13;89.60
54389;BME280;40975;50.390;8.640;2023-03-05T11:44:19;98989.31;;;4.07;89.95
54389;BME280;40975;50.390;8.640;2023-03-05T11:46:49;98978.81;;;4.07;89.72
54389;BME280;40975;50.390;8.640;2023-03-05T11:49:22;98986.38;;;3.99;89.96
54389;BME280;40975;50.390;8.640;2023-03-05T11:52:05;98971.69;;;3.83;89.09
54389;BME280;40975;50.390;8.640;2023-03-05T11:54:51;98974.28;;;4.09;87.07
54389;BME280;40975;50.390;8.640;2023-03-05T11:57:20;98965.66;;;4.07;87.21
54389;BME280;40975;50.390;8.640;2023-03-05T11:59:47;98970.28;;;4.16;86.68
54389;BME280;40975;50.390;8.640;2023-03-05T12:02:18;98965.19;;;4.26;85.82
54389;BME280;40975;50.390;8.640;2023-03-05T12:04:44;98950.44;;;4.36;83.60
54389;BME280;40975;50.390;8.640;2023-03-05T12:07:12;98946.75;;;4.63;82.56
54389;BME280;40975;50.390;8.640;2023-03-05T12:09:41;98943.75;;;4.92;82.03
54389;BME280;40975;50.390;8.640;2023-03-05T12:12:42;98942.22;;;5.01;81.06
54389;BME280;40975;50.390;8.640;2023-03-05T12:15:33;98931.38;;;5.28;80.49
54389;BME280;40975;50.390;8.640;2023-03-05T12:20:44;98927.34;;;5.81;78.45
54389;BME280;40975;50.390;8.640;2023-03-05T12:23:12;98917.91;;;5.79;78.08
54389;BME280;40975;50.390;8.640;2023-03-05T12:25:52;98914.41;;;5.78;79.37
54389;BME280;40975;50.390;8.640;2023-03-05T12:30:58;98918.81;;;5.32;81.87
54389;BME280;40975;50.390;8.640;2023-03-05T12:33:38;98915.31;;;5.09;81.47
54389;BME280;40975;50.390;8.640;2023-03-05T12:38:56;98912.28;;;4.55;84.02
54389;BME280;40975;50.390;8.640;2023-03-05T12:51:48;98898.41;;;4.04;85.93
54389;BME280;40975;50.390;8.640;2023-03-05T12:54:36;98894.97;;;4.04;87.12
54389;BME280;40975;50.390;8.640;2023-03-05T12:57:20;98889.09;;;4.00;87.14
54389;BME280;40975;50.390;8.640;2023-03-05T13:00:07;98883.19;;;4.10;86.08
54389;BME280;40975;50.390;8.640;2023-03-05T13:02:37;98882.38;;;4.09;87.06
54389;BME280;40975;50.390;8.640;2023-03-05T13:05:17;98880.84;;;4.18;86.80
54389;BME280;40975;50.390;8.640;2023-03-05T13:07:43;98878.09;;;4.19;87.03
54389;BME280;40975;50.390;8.640;2023-03-05T13:10:21;98887.28;;;4.38;86.74
54389;BME280;40975;50.390;8.640;2023-03-05T13:12:50;98881.44;;;4.46;87.01
54389;BME280;40975;50.390;8.640;2023-03-05T13:15:17;98881.41;;;4.70;87.50
54389;BME280;40975;50.390;8.640;2023-03-05T13:17:54;98870.78;;;4.72;86.24
54389;BME280;40975;50.390;8.640;2023-03-05T13:23:22;98855.69;;;4.62;83.30
54389;BME280;40975;50.390;8.640;2023-03-05T13:26:14;98855.56;;;4.64;84.74
54389;BME280;40975;50.390;8.640;2023-03-05T13:29:28;98849.25;;;4.66;85.18
54389;BME280;40975;50.390;8.640;2023-03-05T13:31:29;98843.50;;;4.61;84.00
54389;BME280;40975;50.390;8.640;2023-03-05T13:34:07;98848.03;;;4.59;84.30
54389;BME280;40975;50.390;8.640;2023-03-05T13:36:33;98840.88;;;4.61;83.70
54389;BME280;40975;50.390;8.640;2023-03-05T13:38:58;98840.75;;;4.63;85.10
54389;BME280;40975;50.390;8.640;2023-03-05T13:41:28;98836.47;;;4.73;84.60
54389;BME280;40975;50.390;8.640;2023-03-05T13:43:59;98843.69;;;4.94;85.94
54389;BME280;40975;50.390;8.640;2023-03-05T13:46:35;98834.81;;;4.83;83.60
54389;BME280;40975;50.390;8.640;2023-03-05T13:51:48;98832.31;;;4.82;84.80
54389;BME280;40975;50.390;8.640;2023-03-05T13:54:15;98831.81;;;4.77;84.76
54389;BME280;40975;50.390;8.640;2023-03-05T13:56:49;98830.13;;;4.64;84.67
54389;BME280;40975;50.390;8.640;2023-03-05T13:59:20;98827.09;;;4.46;85.24
54389;BME280;40975;50.390;8.640;2023-03-05T14:01:46;98833.47;;;4.31;86.27
54389;BME280;40975;50.390;8.640;2023-03-05T14:09:19;98818.31;;;4.23;86.16
54389;BME280;40975;50.390;8.640;2023-03-05T14:14:43;98811.47;;;4.20;86.90
54389;BME280;40975;50.390;8.640;2023-03-05T14:22:36;98804.78;;;4.16;87.86